Terminal Aerodrome Forecast
Issued by NWS Wilmington, OH

Current Version | Previous Version | Text Only | Print | Product List | Glossary Off
Versions: 1 2 3 4 5 6 7 8 9 10 11 12 13 14 15 16 17 18 19 20

000
FTUS41 KILN 180900 AAA
TAFCMH
TAF AMD
KCMH 180935Z 1810/1906 07003KT P6SM OVC100
     FM181000 07003KT 6SM HZ SCT050
     FM181300 07004KT 6SM HZ OVC025
     FM181700 07005KT P6SM VCSH BKN040
     FM182100 VRB04KT P6SM BKN100=

USA.gov is the U.S. government's official web portal to all federal, state and local government web resources and services.